createdAt,value
2019-02-16T00:00:53.361Z,6.80
2019-02-16T00:02:55.202Z,6.20
2019-02-16T00:04:56.907Z,6.70
2019-02-16T00:06:58.793Z,6.30
2019-02-16T00:09:00.509Z,6.23
2019-02-16T00:11:02.327Z,6.40
2019-02-16T00:13:04.145Z,6.77
2019-02-16T00:15:06.191Z,6.47
2019-02-16T00:17:07.958Z,5.90
2019-02-16T00:19:09.669Z,7.07
2019-02-16T00:21:11.357Z,6.10
2019-02-16T00:23:13.188Z,6.17
2019-02-16T00:25:14.938Z,6.30
2019-02-16T00:27:16.640Z,6.70
2019-02-16T00:29:18.360Z,5.77
2019-02-16T00:31:20.189Z,6.72
2019-02-16T00:33:22.203Z,5.90
2019-02-16T00:35:23.916Z,6.10
2019-02-16T00:37:25.910Z,6.20
2019-02-16T00:39:27.613Z,6.67
2019-02-16T00:41:29.329Z,5.90
2019-02-16T00:43:31.058Z,5.70
2019-02-16T00:45:32.877Z,6.65
2019-02-16T00:47:34.597Z,6.65
2019-02-16T00:49:36.329Z,6.90
2019-02-16T00:51:38.149Z,6.17
2019-02-16T00:53:40.015Z,6.30
2019-02-16T00:55:42.082Z,5.60
2019-02-16T00:57:43.801Z,6.33
2019-02-16T00:59:45.505Z,6.30
2019-02-16T01:01:47.257Z,6.97
2019-02-16T01:03:48.961Z,6.50
2019-02-16T01:05:50.785Z,6.42
2019-02-16T01:07:52.696Z,6.47
2019-02-16T01:09:54.401Z,6.63
2019-02-16T01:11:56.110Z,6.60
2019-02-16T01:13:57.832Z,6.45
2019-02-16T01:15:59.996Z,6.37
2019-02-16T01:18:01.744Z,6.90
2019-02-16T01:20:05.050Z,6.87
2019-02-16T01:22:07.043Z,7.12
2019-02-16T01:24:08.873Z,7.05
2019-02-16T01:26:10.599Z,7.40
2019-02-16T01:28:12.342Z,6.80
2019-02-16T01:30:14.244Z,6.57
2019-02-16T01:32:15.977Z,6.70
2019-02-16T01:34:17.702Z,7.40
2019-02-16T01:36:19.408Z,7.00
2019-02-16T01:38:21.149Z,7.27
2019-02-16T01:40:22.853Z,7.30
2019-02-16T01:42:24.568Z,7.25
2019-02-16T01:44:26.282Z,7.30
2019-02-16T01:46:28.005Z,6.90
2019-02-16T01:48:29.733Z,7.00
2019-02-16T01:50:31.461Z,6.67
2019-02-16T01:52:33.305Z,6.80
2019-02-16T01:54:35.301Z,7.10
2019-02-16T01:56:37.021Z,6.62
2019-02-16T01:58:38.735Z,6.72
2019-02-16T02:00:40.446Z,6.47
2019-02-16T02:02:42.296Z,7.10
2019-02-16T02:04:44.196Z,6.67
2019-02-16T02:06:45.910Z,6.45
2019-02-16T02:08:47.944Z,6.28
2019-02-16T02:10:49.677Z,7.28
2019-02-16T02:12:51.494Z,7.45
2019-02-16T02:14:53.334Z,7.22
2019-02-16T02:16:55.037Z,6.45
2019-02-16T02:18:56.861Z,6.80
2019-02-16T02:20:58.664Z,7.03
2019-02-16T02:23:00.382Z,6.78
2019-02-16T02:25:02.309Z,6.25
2019-02-16T02:27:04.138Z,6.20
2019-02-16T02:29:05.883Z,6.40
2019-02-16T02:31:07.650Z,6.90
2019-02-16T02:33:09.550Z,6.40
2019-02-16T02:35:11.363Z,6.15
2019-02-16T02:37:13.062Z,6.25
2019-02-16T02:39:14.794Z,5.97
2019-02-16T02:41:16.505Z,6.35
2019-02-16T02:43:18.232Z,6.40
2019-02-16T02:45:20.065Z,6.05
2019-02-16T02:47:21.778Z,6.37
2019-02-16T02:49:23.478Z,6.20
2019-02-16T02:51:25.348Z,6.50
2019-02-16T02:53:31.063Z,5.85
2019-02-16T02:55:30.908Z,6.45
2019-02-16T02:57:32.740Z,6.50
2019-02-16T02:59:34.440Z,6.65
2019-02-16T03:01:36.140Z,6.45
2019-02-16T03:03:38.037Z,6.87
2019-02-16T03:05:39.752Z,6.53
2019-02-16T03:07:41.453Z,6.87
2019-02-16T03:09:43.189Z,6.12
2019-02-16T03:11:44.900Z,7.00
2019-02-16T03:13:46.628Z,7.40
2019-02-16T03:15:48.325Z,6.00
2019-02-16T03:17:50.038Z,6.53
2019-02-16T03:19:51.846Z,6.50
2019-02-16T03:22:02.552Z,6.45
2019-02-16T03:23:57.306Z,6.42
2019-02-16T03:26:12.175Z,6.25
2019-02-16T03:28:33.493Z,6.83
2019-02-16T03:31:20.595Z,6.22
2019-02-16T03:33:59.754Z,7.08
2019-02-16T03:37:10.955Z,5.75
2019-02-16T03:39:21.680Z,7.55
2019-02-16T03:41:23.401Z,6.90
2019-02-16T03:43:25.102Z,6.70
2019-02-16T03:45:26.821Z,6.45
2019-02-16T03:47:28.554Z,6.95
2019-02-16T03:49:30.285Z,7.62
2019-02-16T03:51:32.033Z,7.15
2019-02-16T03:53:33.746Z,6.67
2019-02-16T03:55:35.493Z,6.40
2019-02-16T03:57:37.181Z,6.30
2019-02-16T03:59:38.887Z,6.95
2019-02-16T04:01:40.618Z,6.17
2019-02-16T04:03:42.333Z,7.20
2019-02-16T04:05:44.041Z,7.28
2019-02-16T04:07:45.864Z,6.35
2019-02-16T04:09:47.656Z,6.58
2019-02-16T04:11:49.357Z,5.87
2019-02-16T04:13:51.247Z,6.30
2019-02-16T04:15:52.946Z,6.12
2019-02-16T04:17:54.649Z,6.80
2019-02-16T04:19:56.372Z,7.17
2019-02-16T04:21:58.061Z,6.92
2019-02-16T04:23:59.876Z,7.12
2019-02-16T04:26:06.278Z,6.53
2019-02-16T04:28:07.989Z,7.20
2019-02-16T04:30:09.693Z,6.95
2019-02-16T04:32:11.441Z,6.60
2019-02-16T04:34:13.191Z,7.00
2019-02-16T04:36:14.925Z,6.80
2019-02-16T04:38:16.636Z,7.17
2019-02-16T04:40:18.345Z,6.70
2019-02-16T04:42:20.050Z,6.62
2019-02-16T04:44:21.781Z,6.30
2019-02-16T04:46:23.480Z,7.60
2019-02-16T04:48:25.187Z,6.58
2019-02-16T04:50:26.948Z,6.30
2019-02-16T04:52:34.684Z,6.60
2019-02-16T04:54:32.286Z,7.00
2019-02-16T04:56:34.104Z,6.87
2019-02-16T04:58:35.805Z,6.80
2019-02-16T05:00:37.493Z,6.53
2019-02-16T05:02:39.486Z,7.35
2019-02-16T05:04:41.188Z,7.12
2019-02-16T05:06:42.885Z,7.33
2019-02-16T05:08:44.607Z,6.33
2019-02-16T05:10:47.497Z,6.83
2019-02-16T05:12:49.205Z,7.17
2019-02-16T05:14:51.242Z,6.40
2019-02-16T05:16:52.938Z,7.12
2019-02-16T05:18:54.652Z,7.40
2019-02-16T05:20:56.390Z,6.50
2019-02-16T05:22:58.198Z,6.55
2019-02-16T05:24:59.919Z,6.97
2019-02-16T05:27:01.645Z,6.80
2019-02-16T05:29:03.357Z,6.45
2019-02-16T05:31:05.053Z,6.95
2019-02-16T05:33:07.037Z,7.10
2019-02-16T05:35:08.860Z,6.35
2019-02-16T05:37:10.569Z,6.85
2019-02-16T05:39:12.301Z,6.40
2019-02-16T05:41:14.012Z,6.95
2019-02-16T05:43:15.722Z,6.92
2019-02-16T05:45:17.417Z,7.22
2019-02-16T05:47:19.161Z,7.10
2019-02-16T05:49:21.032Z,7.05
2019-02-16T05:51:22.726Z,7.15
2019-02-16T05:53:24.442Z,7.37
2019-02-16T05:55:26.141Z,7.15
2019-02-16T05:57:27.869Z,6.03
2019-02-16T05:59:29.580Z,6.35
2019-02-16T06:01:31.393Z,6.70
2019-02-16T06:03:33.109Z,6.85
2019-02-16T06:05:34.827Z,7.10
2019-02-16T06:07:36.549Z,6.53
2019-02-16T06:09:38.321Z,7.25
2019-02-16T06:11:40.077Z,6.83
2019-02-16T06:13:41.817Z,6.25
2019-02-16T06:15:43.551Z,7.50
2019-02-16T06:17:45.341Z,7.33
2019-02-16T06:19:47.102Z,6.25
2019-02-16T06:21:48.817Z,6.80
2019-02-16T06:23:50.544Z,7.00
2019-02-16T06:25:52.249Z,6.87
2019-02-16T06:27:54.097Z,7.70
2019-02-16T06:29:55.812Z,6.75
2019-02-16T06:31:57.635Z,6.70
2019-02-16T06:33:59.369Z,7.15
2019-02-16T06:36:08.444Z,6.87
2019-02-16T06:38:10.141Z,7.17
2019-02-16T06:40:11.893Z,6.78
2019-02-16T06:42:13.593Z,6.87
2019-02-16T06:44:15.295Z,5.92
2019-02-16T06:46:17.157Z,7.30
2019-02-16T06:48:18.885Z,6.30
2019-02-16T06:50:20.584Z,6.55
2019-02-16T06:52:22.309Z,6.85
2019-02-16T06:54:24.014Z,6.10
2019-02-16T06:56:29.858Z,6.85
2019-02-16T06:58:31.575Z,6.65
2019-02-16T07:00:33.289Z,6.40
2019-02-16T07:02:34.996Z,6.30
2019-02-16T07:04:36.762Z,6.85
2019-02-16T07:06:38.518Z,6.20
2019-02-16T07:08:40.333Z,6.60
2019-02-16T07:10:42.054Z,6.05
2019-02-16T07:12:43.762Z,6.00
2019-02-16T07:14:45.852Z,6.53
2019-02-16T07:17:02.966Z,7.20
2019-02-16T07:19:11.769Z,6.50
2019-02-16T07:21:13.576Z,5.70
2019-02-16T07:23:22.228Z,6.97
2019-02-16T07:25:18.970Z,6.55
2019-02-16T07:27:20.810Z,6.53
2019-02-16T07:29:22.741Z,6.90
2019-02-16T07:31:24.710Z,6.70
2019-02-16T07:33:26.855Z,7.20
2019-02-16T07:35:28.686Z,6.85
2019-02-16T07:37:30.563Z,6.50
2019-02-16T07:39:32.269Z,6.30
2019-02-16T07:41:34.125Z,9.10
2019-02-16T07:43:58.171Z,7.20
2019-02-16T07:46:09.097Z,6.73
2019-02-16T07:48:18.166Z,7.30
2019-02-16T07:50:36.273Z,7.50
2019-02-16T07:52:57.669Z,7.30
2019-02-16T07:55:10.104Z,6.90
2019-02-16T07:57:30.239Z,6.10
2019-02-16T07:59:42.766Z,7.23
2019-02-16T08:01:57.874Z,7.57
2019-02-16T08:04:14.034Z,9.80
2019-02-16T08:06:36.876Z,7.67
2019-02-16T08:09:16.239Z,6.43
2019-02-16T08:11:30.140Z,6.43
2019-02-16T08:13:50.329Z,6.97
2019-02-16T08:16:12.066Z,8.00
2019-02-16T08:18:26.602Z,7.47
2019-02-16T08:20:39.942Z,7.37
2019-02-16T08:22:47.591Z,6.90
2019-02-16T08:25:08.824Z,7.10
2019-02-16T08:27:30.218Z,7.23
2019-02-16T08:29:48.921Z,7.03
2019-02-16T08:32:13.416Z,6.77
2019-02-16T08:34:24.458Z,7.30
2019-02-16T08:38:50.154Z,7.40
2019-02-16T08:41:14.425Z,7.50
2019-02-16T08:43:42.120Z,7.73
2019-02-16T08:46:01.385Z,7.70
2019-02-16T08:48:08.814Z,7.70
2019-02-16T08:50:21.273Z,7.73
2019-02-16T08:52:35.410Z,9.83
2019-02-16T08:54:46.877Z,8.93
2019-02-16T08:57:26.347Z,8.40
2019-02-16T08:59:41.677Z,8.10
2019-02-16T09:01:56.743Z,7.60
2019-02-16T09:04:16.547Z,8.93
2019-02-16T09:06:28.355Z,8.80
2019-02-16T09:08:58.285Z,9.47
2019-02-16T09:11:17.077Z,9.97
2019-02-16T09:13:29.628Z,8.37
2019-02-16T09:15:59.958Z,10.13
2019-02-16T09:18:10.252Z,9.27
2019-02-16T09:20:24.630Z,9.13
2019-02-16T09:22:52.122Z,9.77
2019-02-16T09:24:59.468Z,10.00
2019-02-16T09:27:19.250Z,10.50
2019-02-16T09:29:28.924Z,9.70
2019-02-16T09:31:49.046Z,10.07
2019-02-16T09:34:09.994Z,10.20
2019-02-16T09:36:34.256Z,10.70
2019-02-16T09:38:46.008Z,10.27
2019-02-16T09:40:59.263Z,11.10
2019-02-16T09:43:15.749Z,11.23
2019-02-16T09:45:32.983Z,11.13
2019-02-16T09:47:49.378Z,12.57
2019-02-16T09:50:04.497Z,13.03
2019-02-16T09:52:24.706Z,11.80
2019-02-16T09:54:42.854Z,11.50
2019-02-16T09:56:49.540Z,12.07
2019-02-16T09:59:01.014Z,11.23
2019-02-16T10:01:09.114Z,11.93
2019-02-16T10:03:17.766Z,11.40
2019-02-16T10:05:39.146Z,12.80
2019-02-16T10:07:59.186Z,12.43
2019-02-16T10:10:38.926Z,12.57
2019-02-16T10:13:02.473Z,11.90
2019-02-16T10:15:23.337Z,12.43
2019-02-16T10:17:43.281Z,11.03
2019-02-16T10:20:13.836Z,12.17
2019-02-16T10:22:33.688Z,12.60
2019-02-16T10:24:52.135Z,12.33
2019-02-16T10:27:35.860Z,11.73
2019-02-16T10:29:48.126Z,10.97
2019-02-16T10:32:21.772Z,12.97
2019-02-16T10:34:32.689Z,11.10
2019-02-16T10:36:53.865Z,11.80
2019-02-16T10:39:05.073Z,12.10
2019-02-16T10:41:22.465Z,12.20
2019-02-16T10:43:42.273Z,11.97
2019-02-16T10:45:53.317Z,11.13
2019-02-16T10:48:20.458Z,13.43
2019-02-16T10:50:39.792Z,12.93
2019-02-16T10:52:53.542Z,12.27
2019-02-16T10:55:16.913Z,14.33
2019-02-16T10:57:45.237Z,13.63
2019-02-16T11:00:12.763Z,13.50
2019-02-16T11:02:40.169Z,14.57
2019-02-16T11:05:02.074Z,13.07
2019-02-16T11:07:35.457Z,13.03
2019-02-16T11:09:53.779Z,15.40
2019-02-16T11:12:24.315Z,13.80
2019-02-16T11:14:57.710Z,13.80
2019-02-16T11:17:06.749Z,13.43
2019-02-16T11:19:28.206Z,15.47
2019-02-16T11:21:40.445Z,14.77
2019-02-16T11:24:01.860Z,14.43
2019-02-16T11:26:23.407Z,15.10
2019-02-16T11:28:53.777Z,14.50
2019-02-16T11:31:24.074Z,15.40
2019-02-16T11:33:44.535Z,14.73
2019-02-16T11:36:05.816Z,14.23
2019-02-16T11:38:28.801Z,14.60
2019-02-16T11:40:43.743Z,14.37
2019-02-16T11:43:03.220Z,14.27
2019-02-16T11:45:26.488Z,14.57
2019-02-16T11:47:50.477Z,14.40
2019-02-16T11:50:08.593Z,14.90
2019-02-16T11:52:24.493Z,13.47
2019-02-16T11:54:45.509Z,14.67
2019-02-16T11:56:54.010Z,14.90
2019-02-16T11:59:16.225Z,14.37
2019-02-16T12:01:36.651Z,14.30
2019-02-16T12:03:49.098Z,14.70
2019-02-16T12:06:13.499Z,15.60
2019-02-16T12:08:25.805Z,15.47
2019-02-16T12:10:50.090Z,14.70
2019-02-16T12:13:05.664Z,14.23
2019-02-16T12:15:29.962Z,15.03
2019-02-16T12:18:03.305Z,15.00
2019-02-16T12:20:17.632Z,14.40
2019-02-16T12:22:37.568Z,14.90
2019-02-16T12:25:04.805Z,16.00
2019-02-16T12:27:24.740Z,14.77
2019-02-16T12:29:39.572Z,17.77
2019-02-16T12:31:55.318Z,15.47
2019-02-16T12:34:15.566Z,15.93
2019-02-16T12:36:26.268Z,15.30
2019-02-16T12:38:39.594Z,15.03
2019-02-16T12:40:48.521Z,15.70
2019-02-16T12:42:59.412Z,16.30
2019-02-16T12:45:16.739Z,15.07
2019-02-16T12:47:25.844Z,16.63
2019-02-16T12:49:45.940Z,15.37
2019-02-16T12:52:10.183Z,16.00
2019-02-16T12:54:24.782Z,13.50
2019-02-16T12:56:43.515Z,14.17
2019-02-16T12:58:53.549Z,14.93
2019-02-16T13:01:04.761Z,14.93
2019-02-16T13:03:19.604Z,14.80
2019-02-16T13:05:53.425Z,14.73
2019-02-16T13:08:00.702Z,14.00
2019-02-16T13:10:23.431Z,15.27
2019-02-16T13:12:44.939Z,14.27
2019-02-16T13:15:12.421Z,14.33
2019-02-16T13:17:48.831Z,14.60
2019-02-16T13:20:09.353Z,15.07
2019-02-16T13:22:23.033Z,14.30
2019-02-16T13:24:36.629Z,14.17
2019-02-16T13:27:06.141Z,14.03
2019-02-16T13:29:39.712Z,15.10
2019-02-16T13:32:03.470Z,15.23
2019-02-16T13:34:37.040Z,13.73
2019-02-16T13:36:50.833Z,15.03
2019-02-16T13:39:04.926Z,13.83
2019-02-16T13:41:25.173Z,15.40
2019-02-16T13:43:48.209Z,14.63
2019-02-16T13:45:59.212Z,14.30
2019-02-16T13:48:09.041Z,13.33
2019-02-16T13:50:16.515Z,14.47
2019-02-16T13:52:30.976Z,13.27
2019-02-16T13:54:44.293Z,14.00
2019-02-16T13:57:24.076Z,14.60
2019-02-16T13:59:45.469Z,15.10
2019-02-16T14:02:09.869Z,14.47
2019-02-16T14:04:43.916Z,13.47
2019-02-16T14:07:01.883Z,14.90
2019-02-16T14:09:33.261Z,14.13
2019-02-16T14:11:49.976Z,12.87
2019-02-16T14:14:01.672Z,14.33
2019-02-16T14:16:07.915Z,13.90
2019-02-16T14:18:09.785Z,14.70
2019-02-16T14:20:11.725Z,16.80
2019-02-16T14:22:13.477Z,14.27
2019-02-16T14:24:17.150Z,16.17
2019-02-16T14:26:18.873Z,15.40
2019-02-16T14:28:20.774Z,14.70
2019-02-16T14:30:22.519Z,15.60
2019-02-16T14:32:24.370Z,14.50
2019-02-16T14:34:26.339Z,15.03
2019-02-16T14:36:28.102Z,13.63
2019-02-16T14:38:44.222Z,14.57
2019-02-16T14:40:45.921Z,13.23
2019-02-16T14:42:47.621Z,12.77
2019-02-16T14:44:49.489Z,13.73
2019-02-16T14:46:51.257Z,14.67
2019-02-16T14:48:52.957Z,14.00
2019-02-16T14:50:54.757Z,13.90
2019-02-16T14:52:56.594Z,12.53
2019-02-16T14:54:58.292Z,15.47
2019-02-16T14:56:59.997Z,14.20
2019-02-16T14:59:01.725Z,14.60
2019-02-16T15:01:03.538Z,14.13
2019-02-16T15:03:05.236Z,14.47
2019-02-16T15:05:07.518Z,14.47
2019-02-16T15:07:09.253Z,14.87
2019-02-16T15:09:10.978Z,13.73
2019-02-16T15:11:12.685Z,15.00
2019-02-16T15:13:14.593Z,15.60
2019-02-16T15:15:16.307Z,14.20
2019-02-16T15:17:18.005Z,14.90
2019-02-16T15:19:19.842Z,15.80
2019-02-16T15:21:21.657Z,14.30
2019-02-16T15:23:23.360Z,14.73
2019-02-16T15:25:25.084Z,14.80
2019-02-16T15:27:26.817Z,15.53
2019-02-16T15:29:28.754Z,14.73
2019-02-16T15:31:30.716Z,15.50
2019-02-16T15:33:32.565Z,16.20
2019-02-16T15:35:34.253Z,15.53
2019-02-16T15:37:36.047Z,15.20
2019-02-16T15:39:37.932Z,15.80
2019-02-16T15:41:39.659Z,15.77
2019-02-16T15:43:41.358Z,16.07
2019-02-16T15:45:43.186Z,16.70
2019-02-16T15:47:45.073Z,15.53
2019-02-16T15:49:46.790Z,17.00
2019-02-16T15:51:48.617Z,16.40
2019-02-16T15:53:50.319Z,17.60
2019-02-16T15:55:52.017Z,17.60
2019-02-16T15:57:53.835Z,16.70
2019-02-16T15:59:55.643Z,15.47
2019-02-16T16:01:57.385Z,16.70
2019-02-16T16:03:59.175Z,17.93
2019-02-16T16:06:00.869Z,16.23
2019-02-16T16:08:49.173Z,16.90
2019-02-16T16:11:52.327Z,16.30
2019-02-16T16:14:16.472Z,16.07
2019-02-16T16:16:34.630Z,17.63
2019-02-16T16:18:58.918Z,17.00
2019-02-16T16:21:19.179Z,18.00
2019-02-16T16:23:43.037Z,17.00
2019-02-16T16:26:00.810Z,16.97
2019-02-16T16:28:12.908Z,16.00
2019-02-16T16:30:37.456Z,16.87
2019-02-16T16:33:04.879Z,17.87
2019-02-16T16:35:19.677Z,18.20
2019-02-16T16:37:43.610Z,16.53
2019-02-16T16:40:03.618Z,17.70
2019-02-16T16:42:32.975Z,16.80
2019-02-16T16:44:49.213Z,16.17
2019-02-16T16:47:10.631Z,16.03
2019-02-16T16:49:37.924Z,15.37
2019-02-16T16:51:56.709Z,17.87
2019-02-16T16:54:06.773Z,17.70
2019-02-16T16:56:28.611Z,17.03
2019-02-16T16:58:55.789Z,17.47
2019-02-16T17:01:17.268Z,16.63
2019-02-16T17:03:28.261Z,17.40
2019-02-16T17:05:57.941Z,16.80
2019-02-16T17:08:16.293Z,17.57
2019-02-16T17:10:25.435Z,17.53
2019-02-16T17:12:39.080Z,18.47
2019-02-16T17:14:59.394Z,19.17
2019-02-16T17:17:08.181Z,21.73
2019-02-16T17:19:33.787Z,20.00
2019-02-16T17:21:50.577Z,20.37
2019-02-16T17:24:06.145Z,20.03
2019-02-16T17:26:37.651Z,19.47
2019-02-16T17:28:48.060Z,20.30
2019-02-16T17:30:56.782Z,19.80
2019-02-16T17:33:11.409Z,20.47
2019-02-16T17:35:32.957Z,22.70
2019-02-16T17:37:41.177Z,20.20
2019-02-16T17:40:01.217Z,18.50
2019-02-16T17:42:30.235Z,17.90
2019-02-16T17:44:42.737Z,17.77
2019-02-16T17:47:04.126Z,20.00
2019-02-16T17:49:20.849Z,18.83
2019-02-16T17:51:32.769Z,17.90
2019-02-16T17:54:08.447Z,18.73
2019-02-16T17:56:26.383Z,19.00
2019-02-16T17:58:33.420Z,20.60
2019-02-16T18:00:48.390Z,20.63
2019-02-16T18:03:03.569Z,19.93
2019-02-16T18:05:40.503Z,20.00
2019-02-16T18:08:02.083Z,18.03
2019-02-16T18:10:38.625Z,18.93
2019-02-16T18:12:49.037Z,18.10
2019-02-16T18:15:10.672Z,18.80
2019-02-16T18:17:29.361Z,18.60
2019-02-16T18:19:37.283Z,19.80
2019-02-16T18:22:01.320Z,20.10
2019-02-16T18:24:25.653Z,20.40
2019-02-16T18:26:35.537Z,21.50
2019-02-16T18:29:08.821Z,21.03
2019-02-16T18:31:30.205Z,20.57
2019-02-16T18:34:06.559Z,20.43
2019-02-16T18:36:27.021Z,19.70
2019-02-16T18:38:57.617Z,19.80
2019-02-16T18:41:14.022Z,19.80
2019-02-16T18:43:31.945Z,20.60
2019-02-16T18:46:11.949Z,21.77
2019-02-16T18:48:45.534Z,21.63
2019-02-16T18:51:12.959Z,22.87
2019-02-16T18:53:27.437Z,22.50
2019-02-16T18:55:48.905Z,23.23
2019-02-16T18:58:06.468Z,23.33
2019-02-16T19:00:29.225Z,25.20
2019-02-16T19:02:38.427Z,25.60
2019-02-16T19:05:02.646Z,25.70
2019-02-16T19:07:17.711Z,25.30
2019-02-16T19:09:51.201Z,25.30
2019-02-16T19:12:11.836Z,25.27
2019-02-16T19:14:39.101Z,25.40
2019-02-16T19:16:59.174Z,26.53
2019-02-16T19:19:10.809Z,24.83
2019-02-16T19:21:24.729Z,25.03
2019-02-16T19:23:42.276Z,24.60
2019-02-16T19:26:03.636Z,24.97
2019-02-16T19:28:15.276Z,25.17
2019-02-16T19:30:33.389Z,25.93
2019-02-16T19:33:01.005Z,25.90
2019-02-16T19:35:18.582Z,25.20
2019-02-16T19:37:30.269Z,27.17
2019-02-16T19:39:54.272Z,27.83
2019-02-16T19:42:01.821Z,27.00
2019-02-16T19:44:28.098Z,27.77
2019-02-16T19:46:49.622Z,25.67
2019-02-16T19:49:01.334Z,26.97
2019-02-16T19:51:12.111Z,37.00
2019-02-16T19:53:25.793Z,42.93
2019-02-16T19:55:38.911Z,48.70
2019-02-16T19:58:12.129Z,44.03
2019-02-16T20:00:28.059Z,40.10
2019-02-16T20:02:37.808Z,40.13
2019-02-16T20:04:58.022Z,38.00
2019-02-16T20:07:09.890Z,36.20
2019-02-16T20:09:35.897Z,37.60
2019-02-16T20:11:59.985Z,34.20
2019-02-16T20:14:15.434Z,32.43
2019-02-16T20:16:23.124Z,31.37
2019-02-16T20:18:46.636Z,29.43
2019-02-16T20:21:06.664Z,26.17
2019-02-16T20:23:26.720Z,25.17
2019-02-16T20:25:37.761Z,25.83
2019-02-16T20:27:58.541Z,24.20
2019-02-16T20:30:22.501Z,24.60
2019-02-16T20:32:50.076Z,25.90
2019-02-16T20:35:10.196Z,25.00
2019-02-16T20:37:31.364Z,24.93
2019-02-16T20:39:52.788Z,24.30
2019-02-16T20:42:03.108Z,24.27
2019-02-16T20:44:39.649Z,25.77
2019-02-16T20:46:51.786Z,26.03
2019-02-16T20:49:07.237Z,25.17
2019-02-16T20:51:22.498Z,24.60
2019-02-16T20:53:34.222Z,24.20
2019-02-16T20:55:58.434Z,24.17
2019-02-16T20:58:19.817Z,24.07
2019-02-16T21:00:39.926Z,25.27
2019-02-16T21:02:50.528Z,24.90
2019-02-16T21:05:00.885Z,23.87
2019-02-16T21:07:31.179Z,23.97
2019-02-16T21:09:43.612Z,23.40
2019-02-16T21:11:53.652Z,24.37
2019-02-16T21:14:00.965Z,25.13
2019-02-16T21:16:24.000Z,25.83
2019-02-16T21:18:39.160Z,23.47
2019-02-16T21:20:59.464Z,24.43
2019-02-16T21:23:30.002Z,25.53
2019-02-16T21:25:38.086Z,25.50
2019-02-16T21:27:57.683Z,24.77
2019-02-16T21:30:02.682Z,25.17
2019-02-16T21:32:24.168Z,24.90
2019-02-16T21:34:44.366Z,25.13
2019-02-16T21:36:53.706Z,24.40
2019-02-16T21:39:07.860Z,25.60
2019-02-16T21:41:31.041Z,23.70
2019-02-16T21:43:51.100Z,23.30
2019-02-16T21:46:12.489Z,24.50
2019-02-16T21:48:25.969Z,25.30
2019-02-16T21:50:40.081Z,22.73
2019-02-16T21:53:02.524Z,24.57
2019-02-16T21:55:30.213Z,24.47
2019-02-16T21:57:54.393Z,23.97
2019-02-16T22:00:15.767Z,25.57
2019-02-16T22:02:42.853Z,26.43
2019-02-16T22:05:10.010Z,25.07
2019-02-16T22:07:22.481Z,24.40
2019-02-16T22:09:45.269Z,24.87
2019-02-16T22:12:07.820Z,24.00
2019-02-16T22:14:09.529Z,24.73
2019-02-16T22:16:11.226Z,23.87
2019-02-16T22:18:12.961Z,23.60
2019-02-16T22:20:14.781Z,23.37
2019-02-16T22:22:16.540Z,21.80
2019-02-16T22:24:18.402Z,23.13
2019-02-16T22:26:20.101Z,22.80
2019-02-16T22:28:30.581Z,23.77
2019-02-16T22:30:25.551Z,23.30
2019-02-16T22:32:27.254Z,23.90
2019-02-16T22:34:29.173Z,24.17
2019-02-16T22:36:31.297Z,23.87
2019-02-16T22:38:33.012Z,23.53
2019-02-16T22:40:34.728Z,24.63
2019-02-16T22:42:36.756Z,25.47
2019-02-16T22:44:38.473Z,24.40
2019-02-16T22:46:40.172Z,24.90
2019-02-16T22:48:41.896Z,25.33
2019-02-16T22:50:43.621Z,25.53
2019-02-16T22:52:45.337Z,24.03
2019-02-16T22:54:47.055Z,25.27
2019-02-16T22:56:48.788Z,25.70
2019-02-16T22:58:50.518Z,25.63
2019-02-16T23:00:52.984Z,25.37
2019-02-16T23:02:54.733Z,21.93
2019-02-16T23:04:56.571Z,26.10
2019-02-16T23:06:58.377Z,24.07
2019-02-16T23:09:00.681Z,23.40
2019-02-16T23:11:02.485Z,24.40
2019-02-16T23:13:04.753Z,24.17
2019-02-16T23:15:08.226Z,24.60
2019-02-16T23:17:10.475Z,24.30
2019-02-16T23:19:12.199Z,24.73
2019-02-16T23:21:14.017Z,23.20
2019-02-16T23:23:15.935Z,22.57
2019-02-16T23:25:17.725Z,24.13
2019-02-16T23:27:19.428Z,25.67
2019-02-16T23:29:21.785Z,24.60
2019-02-16T23:31:23.518Z,24.10
2019-02-16T23:33:25.226Z,23.20
2019-02-16T23:35:26.928Z,22.80
2019-02-16T23:37:28.658Z,23.97
2019-02-16T23:39:30.361Z,24.50
2019-02-16T23:41:32.182Z,24.70
2019-02-16T23:43:33.896Z,23.70
2019-02-16T23:45:35.604Z,23.00
2019-02-16T23:47:37.525Z,23.27
2019-02-16T23:49:39.433Z,25.03
2019-02-16T23:51:41.147Z,22.27
2019-02-16T23:53:43.015Z,22.83
2019-02-16T23:55:44.745Z,22.73
2019-02-16T23:57:46.459Z,22.90
2019-02-16T23:59:48.176Z,24.80
